Time;durP1;ratioP1;P1;durP2;ratioP2;P2;SDS_P1;SDS_P2;PMS_P1;PMS_P2;Temp;Humidity;BMP_temperature;BMP_pressure;BME280_temperature;BME280_humidity;BME280_pressure;Samples;Min_cycle;Max_cycle;Signal;HPM_P1;HPM_P2
2022/07/29 04:10:47;;;;;;;7.80;6.60;;;;;;;20.80;70.48;100345.81;5537556;32;200144;-87
2022/07/29 04:13:50;;;;;;;6.65;6.03;;;;;;;20.80;70.48;100345.81;5527629;32;33770;-87
2022/07/29 04:16:53;;;;;;;8.05;6.32;;;;;;;20.36;71.86;100347.09;5525658;32;34425;-87
2022/07/29 04:19:56;;;;;;;13.35;6.03;;;;;;;20.43;71.37;100352.78;5524247;32;33826;-88
2022/07/29 04:22:58;;;;;;;8.02;6.35;;;;;;;20.52;71.25;100353.78;5524565;32;34086;-87
2022/07/29 04:26:01;;;;;;;7.43;6.35;;;;;;;20.61;70.66;100347.53;5524818;32;34055;-87
2022/07/29 04:29:04;;;;;;;6.65;5.90;;;;;;;20.67;69.67;100355.03;5517923;32;34321;-87
2022/07/29 04:32:07;;;;;;;6.57;5.97;;;;;;;20.75;69.45;100351.63;5505371;32;32528;-87
2022/07/29 04:35:09;;;;;;;6.30;5.70;;;;;;;20.90;68.32;100354.75;5505944;32;34356;-87
2022/07/29 04:38:12;;;;;;;6.72;5.93;;;;;;;20.99;68.00;100353.91;5588923;26;32307;-88
2022/07/29 04:41:18;;;;;;;6.95;6.07;;;;;;;21.09;67.41;100344.94;5559699;32;34929;-88
2022/07/29 04:44:37;;;;;;;12.18;5.85;;;;;;;21.14;67.49;100348.03;5552699;32;33923;-88
2022/07/29 04:47:41;;;;;;;8.73;5.82;;;;;;;21.33;66.63;100339.06;5543180;32;34679;-88
2022/07/29 04:50:44;;;;;;;7.37;6.68;;;;;;;21.47;65.58;100342.25;5543482;32;33785;-88
2022/07/29 04:53:47;;;;;;;11.85;6.07;;;;;;;21.61;65.78;100349.00;5545620;32;34121;-88
2022/07/29 04:56:49;;;;;;;9.27;5.90;;;;;;;21.69;67.06;100354.50;5544204;32;34167;-88
2022/07/29 04:59:52;;;;;;;12.13;5.65;;;;;;;21.82;66.79;100362.28;5543334;32;34066;-88
2022/07/29 05:02:54;;;;;;;33.47;7.00;;;;;;;21.90;66.80;100354.28;5543685;32;33961;-88
2022/07/29 05:06:00;;;;;;;10.40;6.40;;;;;;;22.15;65.89;100356.38;5542650;32;34890;-88
2022/07/29 05:09:03;;;;;;;6.75;5.97;;;;;;;22.11;65.43;100358.56;5544322;32;34473;-88
2022/07/29 05:12:07;;;;;;;9.63;5.68;;;;;;;22.30;65.31;100357.56;5543008;32;33926;-88
2022/07/29 05:15:09;;;;;;;9.38;5.78;;;;;;;22.44;64.70;100349.94;5541752;32;35068;-88
2022/07/29 05:18:12;;;;;;;6.50;5.47;;;;;;;22.57;64.66;100355.81;5523242;32;32577;-88
2022/07/29 05:21:15;;;;;;;7.60;5.80;;;;;;;22.78;63.95;100357.31;5514080;32;34501;-87
2022/07/29 05:24:18;;;;;;;6.30;5.70;;;;;;;22.77;63.81;100358.34;5509826;32;33595;-88
2022/07/29 05:27:21;;;;;;;6.60;5.90;;;;;;;23.01;64.85;100346.00;5510282;32;34509;-88
2022/07/29 05:30:24;;;;;;;7.65;5.62;;;;;;;23.11;62.10;100357.56;5513788;32;33802;-88
2022/07/29 05:33:27;;;;;;;13.43;5.78;;;;;;;23.49;60.75;100351.88;5530697;32;33720;-88
2022/07/29 05:36:38;;;;;;;8.18;5.75;;;;;;;23.83;61.33;100350.16;5526782;32;34209;-88
2022/07/29 05:39:40;;;;;;;6.15;5.35;;;;;;;25.03;57.40;100348.09;5530342;32;34611;-88
2022/07/29 05:42:50;;;;;;;5.82;5.28;;;;;;;26.52;52.10;100360.19;5529991;32;33779;-88
2022/07/29 05:45:53;;;;;;;5.62;5.03;;;;;;;27.01;49.94;100363.53;5529651;32;34446;-88
2022/07/29 05:48:56;;;;;;;9.35;5.78;;;;;;;27.24;49.00;100358.03;5529637;32;33483;-87
2022/07/29 05:51:59;;;;;;;6.03;5.47;;;;;;;27.54;47.88;100359.88;5528964;32;34020;-87
2022/07/29 05:55:04;;;;;;;5.40;5.00;;;;;;;27.52;46.58;100354.66;5529896;32;34501;-88
2022/07/29 05:58:06;;;;;;;8.07;5.45;;;;;;;27.66;46.27;100357.56;5527530;32;34445;-88
2022/07/29 06:01:09;;;;;;;12.10;6.07;;;;;;;27.53;46.97;100356.34;5520374;32;33351;-87
2022/07/29 06:04:12;;;;;;;6.55;5.62;;;;;;;27.02;47.97;100360.66;5515972;32;34541;-89
2022/07/29 06:07:16;;;;;;;11.23;5.28;;;;;;;27.26;48.55;100355.13;5511986;32;34315;-87
2022/07/29 06:10:19;;;;;;;8.55;5.40;;;;;;;27.64;46.66;100360.47;5523037;32;35219;-87
2022/07/29 06:43:51;;;;;;;7.65;5.20;;;;;;;31.94;34.49;100371.84;5600603;26;34571;-88
2022/07/29 06:46:58;;;;;;;7.35;5.05;;;;;;;31.01;35.66;100375.44;5569593;32;34145;-89
2022/07/29 06:50:27;;;;;;;5.62;4.97;;;;;;;29.96;36.71;100368.53;2470864;30;20088;-88
2022/07/29 07:16:15;;;;;;;10.48;5.35;;;;;;;32.06;33.46;100361.84;2435787;30;20108;-90
2022/07/29 08:24:42;;;;;;;11.80;5.80;;;;;;;33.73;30.77;100335.84;1835711;26;20119;-90
2022/07/29 08:42:11;;;;;;;5.90;4.90;;;;;;;35.07;27.84;100340.34;2252650;26;20104;-89
2022/07/29 08:45:15;;;;;;;6.47;5.43;;;;;;;35.89;27.90;100328.53;5489962;32;34828;-89
2022/07/29 08:48:20;;;;;;;6.15;5.55;;;;;;;34.35;27.96;100335.84;5536983;27;32633;-89
2022/07/29 08:51:25;;;;;;;7.03;5.15;;;;;;;34.93;27.81;100339.75;5513052;32;35063;-88
2022/07/29 08:54:29;;;;;;;5.40;5.00;;;;;;;34.55;28.91;100327.28;5524137;26;33836;-86
2022/07/29 08:57:34;;;;;;;9.27;5.45;;;;;;;34.97;27.89;100323.56;5558054;26;34187;-89
2022/07/29 09:00:43;;;;;;;6.90;5.40;;;;;;;35.29;27.28;100325.94;5487093;32;33827;-89
2022/07/29 09:03:48;;;;;;;7.93;4.80;;;;;;;35.37;26.89;100322.00;5507956;26;33887;-89
2022/07/29 09:06:56;;;;;;;8.10;5.00;;;;;;;36.24;25.55;100316.50;5482336;32;32541;-89
2022/07/29 09:10:00;;;;;;;6.68;4.80;;;;;;;35.79;26.29;100314.56;5517269;27;32916;-88
2022/07/29 09:13:03;;;;;;;8.70;5.32;;;;;;;36.22;25.16;100313.16;5513790;32;32728;-88
2022/07/29 09:16:06;;;;;;;6.30;5.22;;;;;;;37.15;25.21;100318.47;5544984;26;34257;-88
2022/07/29 09:19:29;;;;;;;9.13;5.28;;;;;;;37.05;24.48;100308.91;5492059;32;32666;-87
2022/07/29 09:22:48;;;;;;;5.50;5.00;;;;;;;37.24;23.97;100307.81;5506144;32;33528;-87
2022/07/29 09:25:51;;;;;;;11.23;4.90;;;;;;;37.20;24.50;100307.47;5511084;32;33822;-87
2022/07/29 09:28:54;;;;;;;6.53;4.90;;;;;;;37.26;24.31;100306.47;5512855;32;35195;-87
2022/07/29 09:31:56;;;;;;;5.28;4.70;;;;;;;37.99;23.95;100308.09;5509552;32;34244;-88
2022/07/29 09:35:19;;;;;;;5.37;4.90;;;;;;;38.36;22.69;100292.62;5502854;32;32458;-88
2022/07/29 09:38:22;;;;;;;6.20;4.87;;;;;;;38.38;22.59;100295.16;5496203;32;32636;-87
2022/07/29 09:41:26;;;;;;;7.80;4.82;;;;;;;38.51;22.27;100296.66;5517968;26;33466;-87
2022/07/29 09:44:48;;;;;;;5.40;4.90;;;;;;;37.19;24.14;100286.44;5505721;32;34233;-87
2022/07/29 09:47:51;;;;;;;7.20;4.78;;;;;;;38.00;23.11;100284.03;5513965;32;34081;-87
2022/07/29 09:50:54;;;;;;;7.95;5.03;;;;;;;37.79;22.20;100286.59;5517747;32;33901;-87
2022/07/29 09:53:57;;;;;;;7.20;4.78;;;;;;;37.79;23.16;100286.59;5550460;26;34499;-87
2022/07/29 09:57:00;;;;;;;12.77;5.03;;;;;;;39.63;21.11;100280.03;5507984;32;33810;-87
2022/07/29 10:00:07;;;;;;;4.65;4.20;;;;;;;41.06;20.08;100279.41;5516297;32;33963;-87
2022/07/29 10:03:15;;;;;;;4.97;4.47;;;;;;;41.11;18.81;100269.38;5504858;32;34035;-88
2022/07/29 10:06:18;;;;;;;7.05;4.40;;;;;;;40.98;19.56;100274.44;5511284;32;33209;-89
2022/07/29 10:39:29;;;;;;;7.00;3.80;;;;;;;37.54;22.11;100242.88;5501570;32;33700;-89
2022/07/29 10:42:46;;;;;;;;;;;;;;;40.07;18.62;100239.00;5505681;32;33972;-90
2022/07/29 10:45:56;;;;;;;5.70;3.70;;;;;;;41.22;18.73;100232.06;5516116;32;35071;-89
2022/07/29 10:49:14;;;;;;;6.32;4.00;;;;;;;40.61;17.85;100240.34;5522055;32;35369;-90
2022/07/29 10:52:19;;;;;;;9.57;4.10;;;;;;;40.74;18.63;100238.06;5509841;32;33111;-89
2022/07/29 10:55:31;;;;;;;3.90;3.55;;;;;;;38.63;19.96;100239.12;5496851;32;34339;-88
2022/07/29 10:58:34;;;;;;;7.47;4.12;;;;;;;37.93;20.53;100228.88;5485873;32;32777;-89
2022/07/29 11:01:36;;;;;;;4.15;3.78;;;;;;;36.66;22.41;100226.03;5511507;32;34881;-88
2022/07/29 11:04:43;;;;;;;5.72;3.95;;;;;;;35.78;23.45;100222.69;5514224;32;33729;-89
2022/07/29 11:08:18;;;;;;;6.57;4.15;;;;;;;35.56;23.85;100219.78;5514114;32;34042;-89
2022/07/29 11:11:27;;;;;;;6.85;4.40;;;;;;;35.65;23.97;100221.09;5490399;32;33752;-90
2022/07/29 11:14:50;;;;;;;6.57;5.00;;;;;;;35.39;23.90;100214.22;5501552;32;33951;-87
2022/07/29 11:17:53;;;;;;;6.50;4.82;;;;;;;34.79;25.23;100219.87;5488548;32;33507;-88
2022/07/29 11:32:25;;;;;;;7.95;4.15;;;;;;;35.06;24.59;100195.38;4910461;30;20104;-88
2022/07/29 11:35:32;;;;;;;4.10;3.70;;;;;;;35.51;24.06;100198.47;5510890;32;33683;-87
2022/07/29 11:38:41;;;;;;;5.18;4.10;;;;;;;35.57;22.99;100185.59;5500415;32;34080;-87
2022/07/29 11:41:44;;;;;;;5.32;3.90;;;;;;;34.95;24.17;100183.28;5502096;32;34292;-88
2022/07/29 11:45:18;;;;;;;4.22;3.83;;;;;;;35.26;23.81;100190.53;5506500;32;34807;-88
2022/07/29 11:48:43;;;;;;;6.22;3.85;;;;;;;35.76;23.32;100183.47;5489797;32;33304;-88
2022/07/29 11:51:52;;;;;;;6.85;3.70;;;;;;;35.84;23.42;100177.53;5491790;32;34755;-88
2022/07/29 11:54:57;;;;;;;4.18;3.87;;;;;;;36.43;22.95;100172.66;5491864;32;35208;-89
2022/07/29 11:58:11;;;;;;;5.87;4.20;;;;;;;36.15;22.70;100180.81;5508377;32;34094;-88
2022/07/29 12:01:17;;;;;;;4.50;4.00;;;;;;;36.31;22.18;100172.78;5510341;32;35324;-88
2022/07/29 12:04:20;;;;;;;13.45;4.20;;;;;;;36.31;22.24;100164.50;5508671;32;34766;-87
2022/07/29 12:07:33;;;;;;;4.82;4.05;;;;;;;35.50;23.36;100166.47;5509271;32;33774;-88
2022/07/29 12:10:38;;;;;;;6.57;3.80;;;;;;;35.41;23.48;100167.94;5493728;32;32555;-89
2022/07/29 12:13:40;;;;;;;3.90;3.60;;;;;;;35.60;23.52;100168.59;5508718;32;33931;-88
2022/07/29 12:16:43;;;;;;;4.12;3.80;;;;;;;36.03;22.85;100159.91;5495475;32;33803;-88
2022/07/29 12:19:46;;;;;;;6.15;3.87;;;;;;;35.98;22.62;100155.13;5509721;26;32661;-88
2022/07/29 12:30:06;;;;;;;5.87;3.78;;;;;;;35.59;22.91;100139.31;5475181;32;33212;-88
2022/07/29 12:36:55;;;;;;;4.57;3.83;;;;;;;35.04;23.88;100136.91;2282755;30;20446;-91
2022/07/29 12:39:59;;;;;;;6.35;4.18;;;;;;;35.54;23.93;100126.25;5511210;32;34829;-91
2022/07/29 12:43:10;;;;;;;7.30;3.80;;;;;;;35.88;23.99;100117.16;5497347;32;33929;-90
2022/07/29 12:50:12;;;;;;;7.70;3.90;;;;;;;35.12;24.68;100107.31;2055352;26;20362;-89
2022/07/29 12:53:15;;;;;;;9.20;4.15;;;;;;;34.67;24.73;100101.47;5510231;27;33754;-89
2022/07/29 12:56:19;;;;;;;4.28;3.90;;;;;;;35.04;23.67;100108.53;5498119;32;32606;-90
2022/07/29 12:59:42;;;;;;;8.55;4.57;;;;;;;34.98;23.92;100099.31;5524921;26;34189;-90
2022/07/29 13:02:55;;;;;;;5.55;3.87;;;;;;;34.25;24.96;100116.25;5499626;32;33167;-90
2022/07/29 13:05:58;;;;;;;7.28;3.75;;;;;;;34.09;25.09;100102.13;5581043;26;34380;-89
2022/07/29 13:09:09;;;;;;;9.25;4.07;;;;;;;34.51;23.02;100098.37;5523520;32;32601;-89
2022/07/29 13:12:13;;;;;;;7.15;4.07;;;;;;;34.54;24.56;100092.38;5522586;32;34165;-89
2022/07/29 13:15:16;;;;;;;4.22;3.83;;;;;;;34.39;23.70;100083.81;5523994;32;34097;-89
2022/07/29 13:18:27;;;;;;;4.22;3.92;;;;;;;34.48;24.31;100081.50;5500044;32;32616;-89
2022/07/29 13:21:30;;;;;;;4.35;3.95;;;;;;;34.57;23.47;100085.56;5492673;32;34034;-92
2022/07/29 13:24:49;;;;;;;3.95;3.40;;;;;;;35.05;23.40;100088.16;5477900;32;32952;-89
2022/07/29 13:27:54;;;;;;;3.90;3.60;;;;;;;34.44;24.05;100078.38;5492361;32;33650;-89
2022/07/29 13:30:56;;;;;;;4.03;3.60;;;;;;;34.99;23.37;100072.59;5477997;32;32997;-89
2022/07/29 13:33:59;;;;;;;5.93;4.10;;;;;;;34.99;22.64;100078.13;5477806;32;33850;-88
2022/07/29 13:37:02;;;;;;;3.78;3.53;;;;;;;34.98;23.54;100073.69;5492293;32;34324;-89
2022/07/29 13:40:08;;;;;;;4.60;3.80;;;;;;;34.95;22.94;100072.28;5493713;32;34865;-89
2022/07/29 13:43:11;;;;;;;4.62;3.87;;;;;;;34.65;22.62;100063.16;5492093;32;34480;-89
2022/07/29 13:46:14;;;;;;;9.20;4.00;;;;;;;34.26;23.58;100057.37;5493408;32;34212;-89
2022/07/29 13:49:17;;;;;;;7.78;4.03;;;;;;;34.41;23.01;100063.22;5492470;32;33997;-89
2022/07/29 13:52:20;;;;;;;5.35;4.20;;;;;;;34.37;23.60;100053.75;5492458;32;34823;-89
2022/07/29 13:55:24;;;;;;;4.12;3.75;;;;;;;34.32;23.83;100052.78;5479196;32;32834;-89
2022/07/29 13:58:26;;;;;;;4.43;3.90;;;;;;;34.10;23.63;100059.81;5512582;26;33229;-89
2022/07/29 14:01:30;;;;;;;4.78;3.90;;;;;;;33.98;23.78;100047.94;5511657;32;33885;-89
2022/07/29 14:04:33;;;;;;;6.05;4.10;;;;;;;34.25;23.83;100042.75;5542586;26;32729;-89
2022/07/29 14:07:38;;;;;;;4.68;4.10;;;;;;;34.17;23.75;100036.81;5515351;27;33858;-90
2022/07/29 14:10:41;;;;;;;5.03;4.20;;;;;;;34.19;24.17;100040.16;5511319;32;32607;-89
2022/07/29 14:13:44;;;;;;;7.05;3.90;;;;;;;34.38;23.86;100035.31;5514761;32;33832;-89
2022/07/29 14:16:46;;;;;;;4.40;3.95;;;;;;;34.19;23.80;100038.22;5588464;26;34302;-90
2022/07/29 14:19:59;;;;;;;5.72;4.20;;;;;;;34.10;23.84;100035.03;5523151;32;33979;-90
2022/07/29 14:23:02;;;;;;;3.97;3.60;;;;;;;33.74;24.75;100029.50;5496970;32;33222;-90
2022/07/29 14:26:06;;;;;;;6.12;4.25;;;;;;;33.76;24.55;100031.19;5510190;32;34205;-90
2022/07/29 14:29:14;;;;;;;4.25;3.85;;;;;;;33.71;23.95;100029.16;5497116;32;34153;-89
2022/07/29 14:32:17;;;;;;;4.82;3.87;;;;;;;33.84;24.63;100023.41;5496966;32;32800;-89
2022/07/29 14:35:20;;;;;;;4.45;4.05;;;;;;;34.23;24.60;100025.66;5510929;32;33857;-89
2022/07/29 14:38:23;;;;;;;5.45;3.83;;;;;;;34.06;24.03;100016.47;5497451;32;32458;-89
2022/07/29 14:41:28;;;;;;;5.53;3.60;;;;;;;34.47;23.39;100009.06;5510435;32;34549;-89
2022/07/29 14:44:31;;;;;;;7.35;4.12;;;;;;;34.85;23.15;100003.19;5497310;32;32614;-89
2022/07/29 14:47:34;;;;;;;4.25;3.90;;;;;;;34.40;23.67;100002.87;5496885;32;32452;-89
2022/07/29 14:50:37;;;;;;;6.87;4.07;;;;;;;34.31;24.24;100005.19;5512219;32;34430;-88
2022/07/29 14:53:40;;;;;;;5.30;4.12;;;;;;;34.34;24.21;100006.63;5496104;32;33793;-89
2022/07/29 14:56:42;;;;;;;5.28;3.90;;;;;;;34.39;24.07;100001.22;5498096;32;32706;-88
2022/07/29 14:59:48;;;;;;;7.30;4.03;;;;;;;34.20;23.78;99997.78;5497783;32;33567;-89
2022/07/29 15:02:51;;;;;;;6.93;4.03;;;;;;;34.45;23.52;99980.97;5524567;26;34225;-89
2022/07/29 15:06:04;;;;;;;4.68;4.25;;;;;;;34.14;23.69;99974.84;5509664;32;34147;-88
2022/07/29 15:09:07;;;;;;;6.07;3.90;;;;;;;34.10;23.91;99968.16;5511865;32;34083;-89
2022/07/29 15:12:11;;;;;;;4.20;3.80;;;;;;;34.24;23.79;99976.97;5515272;32;34013;-89
2022/07/29 15:15:13;;;;;;;4.47;3.83;;;;;;;34.36;23.71;99983.28;5520471;32;34127;-89
2022/07/29 15:18:17;;;;;;;6.03;4.40;;;;;;;34.13;23.75;99976.75;5498559;32;33814;-89
2022/07/29 15:21:27;;;;;;;4.75;4.35;;;;;;;34.01;23.80;99974.00;5496290;32;33814;-89
